sensor_id;sensor_type;location;lat;lon;timestamp;P1;durP1;ratioP1;P2;durP2;ratioP2
31132;SDS011;17779;50.942;4.026;2022-08-24T00:00:11;15.70;;;6.45;;
31132;SDS011;17779;50.942;4.026;2022-08-24T00:02:41;11.50;;;5.20;;
31132;SDS011;17779;50.942;4.026;2022-08-24T00:05:07;9.13;;;4.72;;
31132;SDS011;17779;50.942;4.026;2022-08-24T00:07:34;10.98;;;3.95;;
31132;SDS011;17779;50.942;4.026;2022-08-24T00:10:00;7.43;;;4.57;;
31132;SDS011;17779;50.942;4.026;2022-08-24T00:12:28;11.98;;;4.53;;
31132;SDS011;17779;50.942;4.026;2022-08-24T00:14:56;8.25;;;4.53;;
31132;SDS011;17779;50.942;4.026;2022-08-24T00:17:22;12.50;;;4.50;;
31132;SDS011;17779;50.942;4.026;2022-08-24T00:19:48;14.80;;;4.95;;
31132;SDS011;17779;50.942;4.026;2022-08-24T00:22:13;9.07;;;4.40;;
31132;SDS011;17779;50.942;4.026;2022-08-24T00:24:39;6.50;;;3.65;;
31132;SDS011;17779;50.942;4.026;2022-08-24T00:27:05;7.80;;;4.15;;
31132;SDS011;17779;50.942;4.026;2022-08-24T00:29:32;12.10;;;4.45;;
31132;SDS011;17779;50.942;4.026;2022-08-24T00:34:24;8.57;;;4.00;;
31132;SDS011;17779;50.942;4.026;2022-08-24T00:36:51;7.53;;;3.92;;
31132;SDS011;17779;50.942;4.026;2022-08-24T00:39:17;9.95;;;4.43;;
31132;SDS011;17779;50.942;4.026;2022-08-24T00:41:45;11.57;;;4.47;;
31132;SDS011;17779;50.942;4.026;2022-08-24T00:44:12;12.13;;;4.50;;
31132;SDS011;17779;50.942;4.026;2022-08-24T00:49:10;8.50;;;4.40;;
31132;SDS011;17779;50.942;4.026;2022-08-24T00:52:05;10.00;;;4.80;;
31132;SDS011;17779;50.942;4.026;2022-08-24T00:54:36;11.50;;;4.00;;
31132;SDS011;17779;50.942;4.026;2022-08-24T00:57:11;11.40;;;4.75;;
31132;SDS011;17779;50.942;4.026;2022-08-24T00:59:51;8.90;;;3.97;;
31132;SDS011;17779;50.942;4.026;2022-08-24T01:02:22;9.23;;;4.82;;
31132;SDS011;17779;50.942;4.026;2022-08-24T01:05:01;7.32;;;4.15;;
31132;SDS011;17779;50.942;4.026;2022-08-24T01:07:31;7.03;;;3.53;;
31132;SDS011;17779;50.942;4.026;2022-08-24T01:10:03;10.20;;;3.95;;
31132;SDS011;17779;50.942;4.026;2022-08-24T01:12:36;11.48;;;4.15;;
31132;SDS011;17779;50.942;4.026;2022-08-24T01:15:04;10.60;;;3.85;;
31132;SDS011;17779;50.942;4.026;2022-08-24T01:17:32;9.57;;;4.25;;
31132;SDS011;17779;50.942;4.026;2022-08-24T01:20:18;7.18;;;3.58;;
31132;SDS011;17779;50.942;4.026;2022-08-24T01:25:31;10.77;;;3.83;;
31132;SDS011;17779;50.942;4.026;2022-08-24T01:28:00;10.27;;;3.90;;
31132;SDS011;17779;50.942;4.026;2022-08-24T01:30:31;9.10;;;4.10;;
31132;SDS011;17779;50.942;4.026;2022-08-24T01:33:07;8.40;;;3.45;;
31132;SDS011;17779;50.942;4.026;2022-08-24T01:35:35;11.63;;;4.10;;
31132;SDS011;17779;50.942;4.026;2022-08-24T01:38:05;9.07;;;3.67;;
31132;SDS011;17779;50.942;4.026;2022-08-24T01:40:43;8.23;;;3.75;;
31132;SDS011;17779;50.942;4.026;2022-08-24T01:43:13;9.18;;;3.70;;
31132;SDS011;17779;50.942;4.026;2022-08-24T01:48:05;5.82;;;3.35;;
31132;SDS011;17779;50.942;4.026;2022-08-24T01:50:31;6.88;;;3.70;;
31132;SDS011;17779;50.942;4.026;2022-08-24T01:55:25;9.75;;;3.92;;
31132;SDS011;17779;50.942;4.026;2022-08-24T01:57:52;8.68;;;4.22;;
31132;SDS011;17779;50.942;4.026;2022-08-24T02:00:18;9.82;;;4.07;;
31132;SDS011;17779;50.942;4.026;2022-08-24T02:05:11;7.40;;;3.50;;
31132;SDS011;17779;50.942;4.026;2022-08-24T02:07:39;9.10;;;4.07;;
31132;SDS011;17779;50.942;4.026;2022-08-24T02:10:06;9.00;;;3.75;;
31132;SDS011;17779;50.942;4.026;2022-08-24T02:12:35;12.35;;;3.97;;
31132;SDS011;17779;50.942;4.026;2022-08-24T02:15:03;9.10;;;3.88;;
31132;SDS011;17779;50.942;4.026;2022-08-24T02:17:31;7.53;;;3.63;;
31132;SDS011;17779;50.942;4.026;2022-08-24T02:19:58;6.03;;;3.70;;
31132;SDS011;17779;50.942;4.026;2022-08-24T02:22:25;11.02;;;4.20;;
31132;SDS011;17779;50.942;4.026;2022-08-24T02:24:50;9.07;;;4.05;;
31132;SDS011;17779;50.942;4.026;2022-08-24T02:27:17;8.85;;;3.95;;
31132;SDS011;17779;50.942;4.026;2022-08-24T02:29:44;13.48;;;4.18;;
31132;SDS011;17779;50.942;4.026;2022-08-24T02:34:37;12.00;;;4.20;;
31132;SDS011;17779;50.942;4.026;2022-08-24T02:37:03;8.20;;;3.85;;
31132;SDS011;17779;50.942;4.026;2022-08-24T02:39:29;11.63;;;4.55;;
31132;SDS011;17779;50.942;4.026;2022-08-24T02:41:55;9.90;;;4.40;;
31132;SDS011;17779;50.942;4.026;2022-08-24T02:44:21;9.48;;;4.30;;
31132;SDS011;17779;50.942;4.026;2022-08-24T02:46:47;6.70;;;4.10;;
31132;SDS011;17779;50.942;4.026;2022-08-24T02:49:13;8.77;;;4.55;;
31132;SDS011;17779;50.942;4.026;2022-08-24T02:51:40;9.43;;;4.10;;
31132;SDS011;17779;50.942;4.026;2022-08-24T02:54:08;9.63;;;4.40;;
31132;SDS011;17779;50.942;4.026;2022-08-24T02:56:34;8.48;;;3.85;;
31132;SDS011;17779;50.942;4.026;2022-08-24T02:59:00;9.68;;;4.63;;
31132;SDS011;17779;50.942;4.026;2022-08-24T03:01:26;9.98;;;4.40;;
31132;SDS011;17779;50.942;4.026;2022-08-24T03:03:53;12.38;;;4.53;;
31132;SDS011;17779;50.942;4.026;2022-08-24T03:06:19;8.60;;;4.10;;
31132;SDS011;17779;50.942;4.026;2022-08-24T03:08:45;9.05;;;4.43;;
31132;SDS011;17779;50.942;4.026;2022-08-24T03:11:11;9.48;;;4.75;;
31132;SDS011;17779;50.942;4.026;2022-08-24T03:13:37;8.18;;;4.75;;
31132;SDS011;17779;50.942;4.026;2022-08-24T03:16:04;11.10;;;4.97;;
31132;SDS011;17779;50.942;4.026;2022-08-24T03:18:31;12.68;;;4.97;;
31132;SDS011;17779;50.942;4.026;2022-08-24T03:20:59;11.95;;;5.07;;
31132;SDS011;17779;50.942;4.026;2022-08-24T03:23:25;10.00;;;4.97;;
31132;SDS011;17779;50.942;4.026;2022-08-24T03:25:52;9.55;;;5.10;;
31132;SDS011;17779;50.942;4.026;2022-08-24T03:28:19;11.88;;;5.47;;
31132;SDS011;17779;50.942;4.026;2022-08-24T03:30:46;11.80;;;5.70;;
31132;SDS011;17779;50.942;4.026;2022-08-24T03:33:12;11.68;;;5.45;;
31132;SDS011;17779;50.942;4.026;2022-08-24T03:35:37;12.18;;;5.75;;
31132;SDS011;17779;50.942;4.026;2022-08-24T03:38:03;13.70;;;5.78;;
31132;SDS011;17779;50.942;4.026;2022-08-24T03:40:29;12.70;;;5.30;;
31132;SDS011;17779;50.942;4.026;2022-08-24T03:42:58;9.65;;;5.45;;
31132;SDS011;17779;50.942;4.026;2022-08-24T03:45:25;11.35;;;5.65;;
31132;SDS011;17779;50.942;4.026;2022-08-24T03:47:51;10.98;;;5.95;;
31132;SDS011;17779;50.942;4.026;2022-08-24T03:50:18;14.75;;;5.70;;
31132;SDS011;17779;50.942;4.026;2022-08-24T03:52:44;8.10;;;5.72;;
31132;SDS011;17779;50.942;4.026;2022-08-24T03:55:10;10.75;;;4.45;;
31132;SDS011;17779;50.942;4.026;2022-08-24T03:57:37;9.65;;;4.68;;
31132;SDS011;17779;50.942;4.026;2022-08-24T04:02:30;7.18;;;3.33;;
31132;SDS011;17779;50.942;4.026;2022-08-24T04:04:56;11.70;;;4.00;;
31132;SDS011;17779;50.942;4.026;2022-08-24T04:07:22;11.57;;;4.70;;
31132;SDS011;17779;50.942;4.026;2022-08-24T04:09:48;9.13;;;4.13;;
31132;SDS011;17779;50.942;4.026;2022-08-24T04:12:14;8.02;;;4.45;;
31132;SDS011;17779;50.942;4.026;2022-08-24T04:14:40;10.40;;;4.47;;
31132;SDS011;17779;50.942;4.026;2022-08-24T04:17:06;7.97;;;4.13;;
31132;SDS011;17779;50.942;4.026;2022-08-24T04:19:32;9.65;;;4.20;;
31132;SDS011;17779;50.942;4.026;2022-08-24T04:24:25;10.82;;;4.38;;
31132;SDS011;17779;50.942;4.026;2022-08-24T04:26:51;10.80;;;4.05;;
31132;SDS011;17779;50.942;4.026;2022-08-24T04:29:17;10.85;;;5.00;;
31132;SDS011;17779;50.942;4.026;2022-08-24T04:31:44;11.15;;;4.47;;
31132;SDS011;17779;50.942;4.026;2022-08-24T04:34:13;9.13;;;4.75;;
31132;SDS011;17779;50.942;4.026;2022-08-24T04:36:40;10.35;;;5.03;;
31132;SDS011;17779;50.942;4.026;2022-08-24T04:39:07;7.15;;;4.30;;
31132;SDS011;17779;50.942;4.026;2022-08-24T04:41:33;9.25;;;4.63;;
31132;SDS011;17779;50.942;4.026;2022-08-24T04:43:59;11.82;;;4.65;;
31132;SDS011;17779;50.942;4.026;2022-08-24T04:46:26;9.35;;;4.35;;
31132;SDS011;17779;50.942;4.026;2022-08-24T04:48:53;13.68;;;5.05;;
31132;SDS011;17779;50.942;4.026;2022-08-24T04:51:19;7.38;;;4.25;;
31132;SDS011;17779;50.942;4.026;2022-08-24T04:53:46;10.57;;;4.85;;
31132;SDS011;17779;50.942;4.026;2022-08-24T04:56:15;9.30;;;4.28;;
31132;SDS011;17779;50.942;4.026;2022-08-24T04:58:44;11.23;;;5.43;;
31132;SDS011;17779;50.942;4.026;2022-08-24T05:01:13;10.43;;;4.32;;
31132;SDS011;17779;50.942;4.026;2022-08-24T05:03:45;8.68;;;4.88;;
31132;SDS011;17779;50.942;4.026;2022-08-24T05:06:14;12.32;;;5.20;;
31132;SDS011;17779;50.942;4.026;2022-08-24T05:08:40;10.30;;;5.10;;
31132;SDS011;17779;50.942;4.026;2022-08-24T05:11:07;11.73;;;5.75;;
31132;SDS011;17779;50.942;4.026;2022-08-24T05:16:00;10.05;;;5.63;;
31132;SDS011;17779;50.942;4.026;2022-08-24T05:18:26;10.15;;;5.53;;
31132;SDS011;17779;50.942;4.026;2022-08-24T05:20:54;10.68;;;6.63;;
31132;SDS011;17779;50.942;4.026;2022-08-24T05:23:20;11.95;;;5.90;;
31132;SDS011;17779;50.942;4.026;2022-08-24T05:25:47;11.13;;;5.95;;
31132;SDS011;17779;50.942;4.026;2022-08-24T05:28:13;11.65;;;6.20;;
31132;SDS011;17779;50.942;4.026;2022-08-24T05:30:39;19.45;;;7.45;;
31132;SDS011;17779;50.942;4.026;2022-08-24T05:33:05;11.52;;;7.40;;
31132;SDS011;17779;50.942;4.026;2022-08-24T05:35:35;16.80;;;8.90;;
31132;SDS011;17779;50.942;4.026;2022-08-24T05:38:04;13.80;;;7.97;;
31132;SDS011;17779;50.942;4.026;2022-08-24T05:42:56;12.23;;;8.25;;
31132;SDS011;17779;50.942;4.026;2022-08-24T05:45:22;18.55;;;8.45;;
31132;SDS011;17779;50.942;4.026;2022-08-24T05:50:15;14.65;;;8.02;;
31132;SDS011;17779;50.942;4.026;2022-08-24T05:52:41;16.20;;;8.63;;
31132;SDS011;17779;50.942;4.026;2022-08-24T05:55:07;13.80;;;8.75;;
31132;SDS011;17779;50.942;4.026;2022-08-24T06:00:00;11.48;;;8.45;;
31132;SDS011;17779;50.942;4.026;2022-08-24T06:02:26;19.50;;;9.50;;
31132;SDS011;17779;50.942;4.026;2022-08-24T06:04:53;15.48;;;8.65;;
31132;SDS011;17779;50.942;4.026;2022-08-24T06:09:44;21.52;;;8.93;;
31132;SDS011;17779;50.942;4.026;2022-08-24T06:12:11;14.65;;;8.73;;
31132;SDS011;17779;50.942;4.026;2022-08-24T06:14:37;18.75;;;9.00;;
31132;SDS011;17779;50.942;4.026;2022-08-24T06:17:04;14.48;;;9.32;;
31132;SDS011;17779;50.942;4.026;2022-08-24T06:19:34;19.17;;;9.35;;
31132;SDS011;17779;50.942;4.026;2022-08-24T06:22:00;13.48;;;9.00;;
31132;SDS011;17779;50.942;4.026;2022-08-24T06:24:27;17.95;;;9.65;;
31132;SDS011;17779;50.942;4.026;2022-08-24T06:27:14;18.85;;;9.50;;
31132;SDS011;17779;50.942;4.026;2022-08-24T06:29:53;14.90;;;9.07;;
31132;SDS011;17779;50.942;4.026;2022-08-24T06:32:27;18.42;;;9.82;;
31132;SDS011;17779;50.942;4.026;2022-08-24T06:34:56;19.38;;;9.43;;
31132;SDS011;17779;50.942;4.026;2022-08-24T06:37:23;18.70;;;10.65;;
31132;SDS011;17779;50.942;4.026;2022-08-24T06:39:54;23.80;;;9.63;;
31132;SDS011;17779;50.942;4.026;2022-08-24T06:42:21;22.70;;;10.40;;
31132;SDS011;17779;50.942;4.026;2022-08-24T06:44:48;20.13;;;9.65;;
31132;SDS011;17779;50.942;4.026;2022-08-24T06:47:15;19.20;;;9.35;;
31132;SDS011;17779;50.942;4.026;2022-08-24T06:49:40;17.98;;;10.15;;
31132;SDS011;17779;50.942;4.026;2022-08-24T06:52:07;20.35;;;11.18;;
31132;SDS011;17779;50.942;4.026;2022-08-24T06:54:35;16.02;;;9.25;;
31132;SDS011;17779;50.942;4.026;2022-08-24T06:57:03;18.08;;;10.00;;
31132;SDS011;17779;50.942;4.026;2022-08-24T06:59:31;18.52;;;10.07;;
31132;SDS011;17779;50.942;4.026;2022-08-24T07:01:57;13.27;;;9.15;;
31132;SDS011;17779;50.942;4.026;2022-08-24T07:04:24;17.52;;;9.70;;
31132;SDS011;17779;50.942;4.026;2022-08-24T07:06:51;15.70;;;10.02;;
31132;SDS011;17779;50.942;4.026;2022-08-24T07:09:18;17.23;;;9.85;;
31132;SDS011;17779;50.942;4.026;2022-08-24T07:11:44;21.15;;;9.07;;
31132;SDS011;17779;50.942;4.026;2022-08-24T07:14:09;16.15;;;10.18;;
31132;SDS011;17779;50.942;4.026;2022-08-24T07:16:35;19.38;;;9.77;;
31132;SDS011;17779;50.942;4.026;2022-08-24T07:19:03;18.10;;;9.60;;
31132;SDS011;17779;50.942;4.026;2022-08-24T07:21:30;17.17;;;11.05;;
31132;SDS011;17779;50.942;4.026;2022-08-24T07:23:57;16.85;;;10.68;;
31132;SDS011;17779;50.942;4.026;2022-08-24T07:26:25;23.45;;;13.25;;
31132;SDS011;17779;50.942;4.026;2022-08-24T07:28:53;22.80;;;13.70;;
31132;SDS011;17779;50.942;4.026;2022-08-24T07:31:25;23.17;;;12.07;;
31132;SDS011;17779;50.942;4.026;2022-08-24T07:36:17;18.10;;;10.98;;
31132;SDS011;17779;50.942;4.026;2022-08-24T07:38:43;22.95;;;12.65;;
31132;SDS011;17779;50.942;4.026;2022-08-24T07:41:09;19.80;;;12.85;;
31132;SDS011;17779;50.942;4.026;2022-08-24T07:43:35;22.42;;;11.98;;
31132;SDS011;17779;50.942;4.026;2022-08-24T07:46:02;15.95;;;10.13;;
31132;SDS011;17779;50.942;4.026;2022-08-24T07:48:29;18.90;;;11.30;;
31132;SDS011;17779;50.942;4.026;2022-08-24T07:50:55;18.88;;;12.13;;
31132;SDS011;17779;50.942;4.026;2022-08-24T07:53:23;20.92;;;11.52;;
31132;SDS011;17779;50.942;4.026;2022-08-24T07:58:19;16.75;;;9.50;;
31132;SDS011;17779;50.942;4.026;2022-08-24T08:03:11;17.50;;;10.43;;
31132;SDS011;17779;50.942;4.026;2022-08-24T08:08:05;28.88;;;11.48;;
31132;SDS011;17779;50.942;4.026;2022-08-24T08:10:32;16.30;;;10.07;;
31132;SDS011;17779;50.942;4.026;2022-08-24T08:13:03;19.33;;;10.07;;
31132;SDS011;17779;50.942;4.026;2022-08-24T08:15:31;18.00;;;8.70;;
31132;SDS011;17779;50.942;4.026;2022-08-24T08:17:57;11.57;;;7.85;;
31132;SDS011;17779;50.942;4.026;2022-08-24T08:20:25;15.60;;;9.05;;
31132;SDS011;17779;50.942;4.026;2022-08-24T08:22:50;18.85;;;9.88;;
31132;SDS011;17779;50.942;4.026;2022-08-24T08:25:34;13.85;;;9.65;;
31132;SDS011;17779;50.942;4.026;2022-08-24T08:28:03;14.88;;;9.00;;
31132;SDS011;17779;50.942;4.026;2022-08-24T08:30:30;18.25;;;9.95;;
31132;SDS011;17779;50.942;4.026;2022-08-24T08:32:56;15.18;;;9.32;;
31132;SDS011;17779;50.942;4.026;2022-08-24T08:35:22;15.82;;;8.98;;
31132;SDS011;17779;50.942;4.026;2022-08-24T08:46:09;14.90;;;7.85;;
31132;SDS011;17779;50.942;4.026;2022-08-24T08:52:11;16.88;;;7.20;;
31132;SDS011;17779;50.942;4.026;2022-08-24T08:55:00;11.07;;;5.75;;
31132;SDS011;17779;50.942;4.026;2022-08-24T09:00:20;8.57;;;5.35;;
31132;SDS011;17779;50.942;4.026;2022-08-24T09:17:41;6.80;;;3.45;;
31132;SDS011;17779;50.942;4.026;2022-08-24T09:20:30;6.70;;;4.10;;
31132;SDS011;17779;50.942;4.026;2022-08-24T09:28:59;10.65;;;3.50;;
31132;SDS011;17779;50.942;4.026;2022-08-24T09:31:46;5.85;;;3.25;;
31132;SDS011;17779;50.942;4.026;2022-08-24T09:43:24;7.32;;;3.10;;
31132;SDS011;17779;50.942;4.026;2022-08-24T09:46:09;6.75;;;3.30;;
31132;SDS011;17779;50.942;4.026;2022-08-24T09:52:27;6.10;;;2.65;;
31132;SDS011;17779;50.942;4.026;2022-08-24T09:55:30;6.45;;;2.95;;
31132;SDS011;17779;50.942;4.026;2022-08-24T09:58:07;5.85;;;2.90;;
31132;SDS011;17779;50.942;4.026;2022-08-24T10:00:45;12.40;;;2.88;;
31132;SDS011;17779;50.942;4.026;2022-08-24T10:03:19;13.57;;;3.28;;
31132;SDS011;17779;50.942;4.026;2022-08-24T10:14:32;7.53;;;2.45;;
31132;SDS011;17779;50.942;4.026;2022-08-24T10:35:49;6.57;;;2.05;;
31132;SDS011;17779;50.942;4.026;2022-08-24T10:38:27;4.57;;;2.17;;
31132;SDS011;17779;50.942;4.026;2022-08-24T10:54:13;4.38;;;1.58;;
31132;SDS011;17779;50.942;4.026;2022-08-24T11:05:07;10.18;;;1.88;;
31132;SDS011;17779;50.942;4.026;2022-08-24T11:07:58;7.80;;;1.45;;
31132;SDS011;17779;50.942;4.026;2022-08-24T11:13:34;5.60;;;1.98;;
31132;SDS011;17779;50.942;4.026;2022-08-24T11:16:04;11.27;;;1.98;;
31132;SDS011;17779;50.942;4.026;2022-08-24T11:30:28;8.38;;;1.20;;
31132;SDS011;17779;50.942;4.026;2022-08-24T11:35:54;7.55;;;1.80;;
31132;SDS011;17779;50.942;4.026;2022-08-24T11:53:06;5.63;;;1.10;;
31132;SDS011;17779;50.942;4.026;2022-08-24T11:55:56;3.60;;;1.45;;
31132;SDS011;17779;50.942;4.026;2022-08-24T12:01:23;7.80;;;1.17;;
31132;SDS011;17779;50.942;4.026;2022-08-24T12:07:19;3.60;;;1.58;;
31132;SDS011;17779;50.942;4.026;2022-08-24T12:15:15;1.90;;;1.00;;
31132;SDS011;17779;50.942;4.026;2022-08-24T12:17:54;2.70;;;1.30;;
31132;SDS011;17779;50.942;4.026;2022-08-24T12:20:32;4.28;;;1.15;;
31132;SDS011;17779;50.942;4.026;2022-08-24T12:25:51;2.05;;;1.10;;
31132;SDS011;17779;50.942;4.026;2022-08-24T12:28:52;4.28;;;1.30;;
31132;SDS011;17779;50.942;4.026;2022-08-24T12:33:53;3.45;;;1.13;;
31132;SDS011;17779;50.942;4.026;2022-08-24T12:36:35;8.88;;;1.52;;
31132;SDS011;17779;50.942;4.026;2022-08-24T12:39:33;1.90;;;1.20;;
31132;SDS011;17779;50.942;4.026;2022-08-24T12:42:11;1.83;;;1.00;;
31132;SDS011;17779;50.942;4.026;2022-08-24T12:44:51;3.70;;;1.20;;
31132;SDS011;17779;50.942;4.026;2022-08-24T12:47:26;6.43;;;1.30;;
31132;SDS011;17779;50.942;4.026;2022-08-24T12:50:23;3.08;;;1.13;;
31132;SDS011;17779;50.942;4.026;2022-08-24T12:53:10;5.40;;;1.40;;
31132;SDS011;17779;50.942;4.026;2022-08-24T12:59:27;4.88;;;1.15;;
31132;SDS011;17779;50.942;4.026;2022-08-24T13:02:43;4.70;;;1.17;;
31132;SDS011;17779;50.942;4.026;2022-08-24T13:04:57;7.25;;;1.42;;
31132;SDS011;17779;50.942;4.026;2022-08-24T13:07:30;2.75;;;1.30;;
31132;SDS011;17779;50.942;4.026;2022-08-24T13:10:07;4.18;;;1.30;;
31132;SDS011;17779;50.942;4.026;2022-08-24T13:23:13;7.22;;;1.23;;
31132;SDS011;17779;50.942;4.026;2022-08-24T13:25:54;6.90;;;1.08;;
31132;SDS011;17779;50.942;4.026;2022-08-24T13:28:35;3.97;;;1.00;;
31132;SDS011;17779;50.942;4.026;2022-08-24T13:31:35;2.40;;;0.90;;
31132;SDS011;17779;50.942;4.026;2022-08-24T13:48:40;3.78;;;1.20;;
31132;SDS011;17779;50.942;4.026;2022-08-24T13:56:37;2.65;;;1.10;;
31132;SDS011;17779;50.942;4.026;2022-08-24T14:06:59;3.95;;;1.10;;
31132;SDS011;17779;50.942;4.026;2022-08-24T14:12:52;5.72;;;1.38;;
31132;SDS011;17779;50.942;4.026;2022-08-24T14:18:35;7.65;;;1.13;;
31132;SDS011;17779;50.942;4.026;2022-08-24T14:21:14;5.57;;;1.30;;
31132;SDS011;17779;50.942;4.026;2022-08-24T14:23:55;7.38;;;1.40;;
31132;SDS011;17779;50.942;4.026;2022-08-24T14:34:37;7.97;;;1.35;;
31132;SDS011;17779;50.942;4.026;2022-08-24T14:39:40;4.38;;;1.20;;
31132;SDS011;17779;50.942;4.026;2022-08-24T14:42:19;2.38;;;1.05;;
31132;SDS011;17779;50.942;4.026;2022-08-24T14:44:57;4.07;;;1.30;;
31132;SDS011;17779;50.942;4.026;2022-08-24T14:50:32;9.48;;;1.52;;
31132;SDS011;17779;50.942;4.026;2022-08-24T14:53:19;4.68;;;1.60;;
31132;SDS011;17779;50.942;4.026;2022-08-24T15:01:42;6.85;;;1.70;;
31132;SDS011;17779;50.942;4.026;2022-08-24T15:04:14;5.80;;;1.33;;
31132;SDS011;17779;50.942;4.026;2022-08-24T15:06:57;2.45;;;1.40;;
31132;SDS011;17779;50.942;4.026;2022-08-24T15:09:41;5.13;;;1.50;;
31132;SDS011;17779;50.942;4.026;2022-08-24T15:15:14;6.78;;;1.60;;
31132;SDS011;17779;50.942;4.026;2022-08-24T15:17:50;2.97;;;1.38;;
31132;SDS011;17779;50.942;4.026;2022-08-24T15:23:02;4.82;;;1.60;;
31132;SDS011;17779;50.942;4.026;2022-08-24T15:28:14;6.43;;;1.48;;
31132;SDS011;17779;50.942;4.026;2022-08-24T15:30:57;6.15;;;1.42;;
31132;SDS011;17779;50.942;4.026;2022-08-24T15:33:32;5.55;;;1.48;;
31132;SDS011;17779;50.942;4.026;2022-08-24T15:38:33;3.92;;;1.10;;
31132;SDS011;17779;50.942;4.026;2022-08-24T15:41:03;4.30;;;1.30;;
31132;SDS011;17779;50.942;4.026;2022-08-24T15:46:17;4.07;;;1.20;;
31132;SDS011;17779;50.942;4.026;2022-08-24T15:48:45;5.70;;;1.20;;
31132;SDS011;17779;50.942;4.026;2022-08-24T15:51:59;4.00;;;1.23;;
31132;SDS011;17779;50.942;4.026;2022-08-24T15:56:49;3.35;;;1.40;;
31132;SDS011;17779;50.942;4.026;2022-08-24T15:59:26;2.75;;;1.40;;
31132;SDS011;17779;50.942;4.026;2022-08-24T16:13:11;7.85;;;1.30;;
31132;SDS011;17779;50.942;4.026;2022-08-24T16:15:49;7.85;;;1.45;;
31132;SDS011;17779;50.942;4.026;2022-08-24T16:21:38;5.72;;;1.30;;
31132;SDS011;17779;50.942;4.026;2022-08-24T16:34:37;5.80;;;1.35;;
31132;SDS011;17779;50.942;4.026;2022-08-24T16:37:05;5.38;;;1.60;;
31132;SDS011;17779;50.942;4.026;2022-08-24T16:39:32;4.10;;;1.40;;
31132;SDS011;17779;50.942;4.026;2022-08-24T16:42:01;8.98;;;1.50;;
31132;SDS011;17779;50.942;4.026;2022-08-24T16:44:32;6.22;;;1.92;;
31132;SDS011;17779;50.942;4.026;2022-08-24T16:47:00;4.13;;;1.60;;
31132;SDS011;17779;50.942;4.026;2022-08-24T16:49:26;7.35;;;2.45;;
31132;SDS011;17779;50.942;4.026;2022-08-24T16:54:18;5.70;;;1.80;;
31132;SDS011;17779;50.942;4.026;2022-08-24T16:59:13;17.58;;;2.00;;
31132;SDS011;17779;50.942;4.026;2022-08-24T17:01:43;4.47;;;1.58;;
31132;SDS011;17779;50.942;4.026;2022-08-24T17:04:10;3.90;;;1.50;;
31132;SDS011;17779;50.942;4.026;2022-08-24T17:09:10;6.53;;;2.00;;
31132;SDS011;17779;50.942;4.026;2022-08-24T17:11:37;5.22;;;1.80;;
31132;SDS011;17779;50.942;4.026;2022-08-24T17:14:04;6.05;;;2.15;;
31132;SDS011;17779;50.942;4.026;2022-08-24T17:16:31;5.20;;;1.80;;
31132;SDS011;17779;50.942;4.026;2022-08-24T17:18:57;5.45;;;2.03;;
31132;SDS011;17779;50.942;4.026;2022-08-24T17:21:23;4.75;;;1.35;;
31132;SDS011;17779;50.942;4.026;2022-08-24T17:23:50;7.57;;;1.55;;
31132;SDS011;17779;50.942;4.026;2022-08-24T17:28:42;6.10;;;1.77;;
31132;SDS011;17779;50.942;4.026;2022-08-24T17:31:12;10.93;;;1.58;;
31132;SDS011;17779;50.942;4.026;2022-08-24T17:33:38;14.15;;;2.45;;
31132;SDS011;17779;50.942;4.026;2022-08-24T17:36:04;4.03;;;1.48;;
31132;SDS011;17779;50.942;4.026;2022-08-24T17:38:32;6.10;;;1.60;;
31132;SDS011;17779;50.942;4.026;2022-08-24T17:41:03;2.83;;;1.38;;
31132;SDS011;17779;50.942;4.026;2022-08-24T17:43:29;9.10;;;1.67;;
31132;SDS011;17779;50.942;4.026;2022-08-24T17:48:22;7.15;;;1.83;;
31132;SDS011;17779;50.942;4.026;2022-08-24T17:50:49;4.95;;;1.70;;
31132;SDS011;17779;50.942;4.026;2022-08-24T17:55:40;12.15;;;3.35;;
31132;SDS011;17779;50.942;4.026;2022-08-24T18:00:32;2.92;;;1.50;;
31132;SDS011;17779;50.942;4.026;2022-08-24T18:03:00;9.90;;;2.20;;
31132;SDS011;17779;50.942;4.026;2022-08-24T18:07:52;3.95;;;1.85;;
31132;SDS011;17779;50.942;4.026;2022-08-24T18:10:21;7.60;;;2.40;;
31132;SDS011;17779;50.942;4.026;2022-08-24T18:12:49;6.93;;;2.55;;
31132;SDS011;17779;50.942;4.026;2022-08-24T18:17:47;9.45;;;2.35;;
31132;SDS011;17779;50.942;4.026;2022-08-24T18:20:19;10.68;;;2.78;;
31132;SDS011;17779;50.942;4.026;2022-08-24T18:22:50;4.13;;;1.90;;
31132;SDS011;17779;50.942;4.026;2022-08-24T18:25:16;7.72;;;4.75;;
31132;SDS011;17779;50.942;4.026;2022-08-24T18:27:44;10.45;;;2.70;;
31132;SDS011;17779;50.942;4.026;2022-08-24T18:30:13;7.20;;;2.10;;
31132;SDS011;17779;50.942;4.026;2022-08-24T18:32:45;3.85;;;1.85;;
31132;SDS011;17779;50.942;4.026;2022-08-24T18:37:36;11.18;;;2.15;;
31132;SDS011;17779;50.942;4.026;2022-08-24T18:40:03;6.00;;;1.48;;
31132;SDS011;17779;50.942;4.026;2022-08-24T18:42:29;4.25;;;1.88;;
31132;SDS011;17779;50.942;4.026;2022-08-24T18:44:56;8.50;;;1.63;;
31132;SDS011;17779;50.942;4.026;2022-08-24T18:47:23;3.83;;;1.70;;
31132;SDS011;17779;50.942;4.026;2022-08-24T18:49:49;5.25;;;1.70;;
31132;SDS011;17779;50.942;4.026;2022-08-24T18:54:41;11.85;;;2.55;;
31132;SDS011;17779;50.942;4.026;2022-08-24T18:57:09;7.25;;;1.73;;
31132;SDS011;17779;50.942;4.026;2022-08-24T18:59:35;5.93;;;1.63;;
31132;SDS011;17779;50.942;4.026;2022-08-24T19:02:05;7.70;;;1.75;;
31132;SDS011;17779;50.942;4.026;2022-08-24T19:04:58;4.47;;;1.77;;
31132;SDS011;17779;50.942;4.026;2022-08-24T19:07:26;5.88;;;2.20;;
31132;SDS011;17779;50.942;4.026;2022-08-24T19:09:53;14.43;;;2.17;;
31132;SDS011;17779;50.942;4.026;2022-08-24T19:12:19;11.45;;;2.50;;
31132;SDS011;17779;50.942;4.026;2022-08-24T19:17:13;7.65;;;2.72;;
31132;SDS011;17779;50.942;4.026;2022-08-24T19:19:39;9.77;;;2.13;;
31132;SDS011;17779;50.942;4.026;2022-08-24T19:22:05;6.20;;;1.88;;
31132;SDS011;17779;50.942;4.026;2022-08-24T19:24:34;7.82;;;2.00;;
31132;SDS011;17779;50.942;4.026;2022-08-24T19:27:00;5.05;;;1.83;;
31132;SDS011;17779;50.942;4.026;2022-08-24T19:29:26;8.13;;;2.13;;
31132;SDS011;17779;50.942;4.026;2022-08-24T19:31:55;3.97;;;2.05;;
31132;SDS011;17779;50.942;4.026;2022-08-24T19:34:22;5.50;;;1.75;;
31132;SDS011;17779;50.942;4.026;2022-08-24T19:36:47;6.38;;;1.77;;
31132;SDS011;17779;50.942;4.026;2022-08-24T19:39:14;5.88;;;1.88;;
31132;SDS011;17779;50.942;4.026;2022-08-24T19:41:41;8.32;;;2.22;;
31132;SDS011;17779;50.942;4.026;2022-08-24T19:44:09;10.32;;;2.00;;
31132;SDS011;17779;50.942;4.026;2022-08-24T19:46:54;6.50;;;1.85;;
31132;SDS011;17779;50.942;4.026;2022-08-24T19:49:21;7.63;;;1.92;;
31132;SDS011;17779;50.942;4.026;2022-08-24T19:51:47;4.75;;;1.98;;
31132;SDS011;17779;50.942;4.026;2022-08-24T19:54:14;13.85;;;1.95;;
31132;SDS011;17779;50.942;4.026;2022-08-24T19:56:40;4.03;;;1.88;;
31132;SDS011;17779;50.942;4.026;2022-08-24T19:59:07;8.77;;;2.33;;
31132;SDS011;17779;50.942;4.026;2022-08-24T20:01:44;5.72;;;2.00;;
31132;SDS011;17779;50.942;4.026;2022-08-24T20:04:10;11.23;;;2.30;;
31132;SDS011;17779;50.942;4.026;2022-08-24T20:06:37;11.40;;;2.10;;
31132;SDS011;17779;50.942;4.026;2022-08-24T20:09:05;5.32;;;2.05;;
31132;SDS011;17779;50.942;4.026;2022-08-24T20:11:31;6.40;;;2.38;;
31132;SDS011;17779;50.942;4.026;2022-08-24T20:16:25;8.52;;;2.47;;
31132;SDS011;17779;50.942;4.026;2022-08-24T20:18:53;10.48;;;2.47;;
31132;SDS011;17779;50.942;4.026;2022-08-24T20:21:18;4.20;;;2.30;;
31132;SDS011;17779;50.942;4.026;2022-08-24T20:23:44;8.90;;;2.70;;
31132;SDS011;17779;50.942;4.026;2022-08-24T20:26:10;6.68;;;2.10;;
31132;SDS011;17779;50.942;4.026;2022-08-24T20:28:50;5.50;;;2.38;;